Time;durP1;ratioP1;P1;durP2;ratioP2;P2;SDS_P1;SDS_P2;PMS_P1;PMS_P2;Temp;Humidity;BMP_temperature;BMP_pressure;BME280_temperature;BME280_humidity;BME280_pressure;Samples;Min_cycle;Max_cycle;Signal;HPM_P1;HPM_P2
2024/01/30 00:01:18;;;;;;;;;;;;;;;7.32;100.00;102550.38;5037735;28;19925;-67
2024/01/30 00:03:43;;;;;;;;;;;;;;;7.22;100.00;102549.22;5030286;28;19920;-67
2024/01/30 00:06:09;;;;;;;;;;;;;;;7.16;100.00;102544.69;5025118;28;19920;-67
2024/01/30 00:08:34;;;;;;;;;;;;;;;7.18;100.00;102547.34;5028845;28;20011;-67
2024/01/30 00:11:00;;;;;;;;;;;;;;;7.13;100.00;102552.44;5055235;28;19916;-67
2024/01/30 00:13:26;;;;;;;;;;;;;;;7.14;100.00;102548.09;5038118;28;19931;-67
2024/01/30 00:15:51;;;;;;;;;;;;;;;7.04;100.00;102549.53;5042531;28;19924;-66
2024/01/30 00:18:16;;;;;;;;;;;;;;;7.02;100.00;102553.84;5026474;28;19920;-66
2024/01/30 00:20:42;;;;;;;;;;;;;;;7.11;100.00;102549.78;5045039;28;19924;-66
2024/01/30 00:23:08;;;;;;;;;;;;;;;6.93;100.00;102552.69;5037456;28;19989;-66
2024/01/30 00:25:33;;;;;;;;;;;;;;;7.02;100.00;102546.88;5016388;28;19925;-66
2024/01/30 00:27:58;;;;;;;;;;;;;;;6.96;100.00;102548.44;4982181;28;19921;-67
2024/01/30 00:30:24;;;;;;;;;;;;;;;6.83;100.00;102545.44;5029703;28;20385;-67
2024/01/30 00:32:49;;;;;;;;;;;;;;;6.88;100.00;102551.69;5004755;28;20468;-67
2024/01/30 00:35:14;;;;;;;;;;;;;;;6.74;100.00;102548.66;5009914;28;19921;-67
2024/01/30 00:37:40;;;;;;;;;;;;;;;6.68;100.00;102542.34;5005206;28;19979;-66
2024/01/30 00:40:05;;;;;;;;;;;;;;;6.64;100.00;102545.69;5005141;28;20024;-67
2024/01/30 00:42:31;;;;;;;;;;;;;;;6.65;100.00;102545.78;4999459;28;19939;-66
2024/01/30 00:44:56;;;;;;;;;;;;;;;6.62;100.00;102539.56;5023198;28;20028;-67
2024/01/30 00:47:21;;;;;;;;;;;;;;;6.72;100.00;102528.59;4999059;28;19925;-67
2024/01/30 00:49:47;;;;;;;;;;;;;;;6.65;100.00;102534.44;5015635;28;19933;-66
2024/01/30 00:52:12;;;;;;;;;;;;;;;6.58;100.00;102538.59;5011596;28;19933;-66
2024/01/30 00:54:37;;;;;;;;;;;;;;;6.51;100.00;102532.28;5013477;28;19983;-67
2024/01/30 00:57:03;;;;;;;;;;;;;;;6.53;100.00;102535.81;5009313;28;20357;-66
2024/01/30 00:59:29;;;;;;;;;;;;;;;6.47;100.00;102538.22;5009451;28;19929;-66
2024/01/30 01:01:54;;;;;;;;;;;;;;;6.51;100.00;102537.50;5005756;28;20016;-66
2024/01/30 01:04:21;;;;;;;;;;;;;;;6.52;100.00;102531.47;5003791;28;20457;-66
2024/01/30 01:06:46;;;;;;;;;;;;;;;6.48;100.00;102528.69;5012583;28;19931;-66
2024/01/30 01:09:12;;;;;;;;;;;;;;;6.45;100.00;102526.00;5001828;28;19921;-67
2024/01/30 01:11:38;;;;;;;;;;;;;;;6.46;100.00;102522.56;5012086;28;19932;-66
2024/01/30 01:14:03;;;;;;;;;;;;;;;6.45;100.00;102524.28;5031327;28;19921;-66
2024/01/30 01:16:28;;;;;;;;;;;;;;;6.51;100.00;102518.41;5024885;28;19934;-73
2024/01/30 01:18:54;;;;;;;;;;;;;;;6.55;100.00;102534.16;5002178;28;19963;-73
2024/01/30 01:21:19;;;;;;;;;;;;;;;6.40;100.00;102518.03;5000700;28;19967;-74
2024/01/30 01:23:44;;;;;;;;;;;;;;;6.35;100.00;102525.72;5014221;28;19929;-73
2024/01/30 01:26:09;;;;;;;;;;;;;;;6.37;100.00;102518.81;5007731;28;19930;-73
2024/01/30 01:28:35;;;;;;;;;;;;;;;6.30;100.00;102510.78;5006388;28;19925;-73
2024/01/30 01:31:05;;;;;;;;;;;;;;;6.23;100.00;102521.00;5001807;28;19930;-73
2024/01/30 01:33:31;;;;;;;;;;;;;;;6.17;100.00;102519.88;5014542;28;20337;-73
2024/01/30 01:35:57;;;;;;;;;;;;;;;6.13;100.00;102513.69;5017067;28;19924;-73
2024/01/30 01:38:22;;;;;;;;;;;;;;;6.03;100.00;102512.50;5003034;28;19924;-73
2024/01/30 01:40:47;;;;;;;;;;;;;;;6.00;100.00;102508.91;5001772;28;19925;-73
2024/01/30 01:43:13;;;;;;;;;;;;;;;5.94;100.00;102511.28;5003502;28;19932;-73
2024/01/30 01:45:38;;;;;;;;;;;;;;;5.97;100.00;102513.97;5002389;28;19921;-66
2024/01/30 01:48:03;;;;;;;;;;;;;;;5.93;100.00;102514.69;4992601;28;20349;-67
2024/01/30 01:50:29;;;;;;;;;;;;;;;5.92;100.00;102510.31;5016340;28;19968;-66
2024/01/30 01:52:54;;;;;;;;;;;;;;;6.03;100.00;102502.09;5000812;28;19928;-66
2024/01/30 01:55:25;;;;;;;;;;;;;;;6.00;100.00;102498.50;5023663;28;19995;-66
2024/01/30 01:57:51;;;;;;;;;;;;;;;6.03;100.00;102502.09;5004023;28;19921;-66
2024/01/30 02:00:16;;;;;;;;;;;;;;;6.03;100.00;102501.19;4997075;28;19922;-66
2024/01/30 02:02:42;;;;;;;;;;;;;;;6.06;100.00;102501.28;5015460;28;19944;-66
2024/01/30 02:05:08;;;;;;;;;;;;;;;6.00;100.00;102501.97;5012180;28;20292;-66
2024/01/30 02:07:33;;;;;;;;;;;;;;;6.14;100.00;102505.03;5001985;28;19921;-66
2024/01/30 02:09:59;;;;;;;;;;;;;;;6.14;100.00;102499.84;5019961;28;19913;-66
2024/01/30 02:12:24;;;;;;;;;;;;;;;6.18;100.00;102504.31;5001266;28;20336;-66
2024/01/30 02:14:50;;;;;;;;;;;;;;;6.21;100.00;102488.78;4994608;28;20336;-66
2024/01/30 02:17:16;;;;;;;;;;;;;;;6.27;100.00;102500.25;5020082;28;19917;-66
2024/01/30 02:19:41;;;;;;;;;;;;;;;6.32;100.00;102498.66;5018941;28;19976;-66
2024/01/30 02:22:07;;;;;;;;;;;;;;;6.28;100.00;102487.28;5003694;28;19921;-66
2024/01/30 02:24:32;;;;;;;;;;;;;;;6.32;100.00;102498.66;5023861;28;19925;-66
2024/01/30 02:26:57;;;;;;;;;;;;;;;6.31;100.00;102497.78;5001050;28;20381;-66
2024/01/30 02:29:24;;;;;;;;;;;;;;;6.19;100.00;102487.88;5000259;28;19972;-66
2024/01/30 02:31:49;;;;;;;;;;;;;;;6.17;100.00;102484.31;5006406;28;20350;-66
2024/01/30 02:34:14;;;;;;;;;;;;;;;6.18;100.00;102485.22;5006607;28;20032;-66
2024/01/30 02:36:43;;;;;;;;;;;;;;;6.21;100.00;102481.00;5001862;28;19929;-66
2024/01/30 02:39:09;;;;;;;;;;;;;;;6.16;100.00;102482.56;5000448;28;19932;-66
2024/01/30 02:41:35;;;;;;;;;;;;;;;6.18;100.00;102477.41;5020360;28;19921;-73
2024/01/30 02:44:00;;;;;;;;;;;;;;;6.23;100.00;102489.75;5013991;28;19921;-73
2024/01/30 02:46:25;;;;;;;;;;;;;;;6.19;100.00;102482.66;4984140;28;20271;-73
2024/01/30 02:48:51;;;;;;;;;;;;;;;6.27;100.00;102474.22;5003633;28;19929;-73
2024/01/30 02:51:17;;;;;;;;;;;;;;;6.39;100.00;102479.81;5020504;28;19918;-73
2024/01/30 02:53:42;;;;;;;;;;;;;;;6.27;100.00;102477.69;4984899;28;19925;-74
2024/01/30 02:56:09;;;;;;;;;;;;;;;6.31;100.00;102470.88;5006321;28;19948;-73
2024/01/30 02:58:35;;;;;;;;;;;;;;;6.27;100.00;102475.09;5003146;28;20011;-73
2024/01/30 03:01:01;;;;;;;;;;;;;;;6.30;100.00;102469.13;5000761;28;19932;-74
2024/01/30 03:03:26;;;;;;;;;;;;;;;6.21;100.00;102470.56;5001522;28;19952;-73
2024/01/30 03:05:51;;;;;;;;;;;;;;;6.34;100.00;102471.84;4987514;28;20003;-73
2024/01/30 03:08:17;;;;;;;;;;;;;;;6.31;100.00;102470.88;5021417;28;19925;-74
2024/01/30 03:10:42;;;;;;;;;;;;;;;6.46;100.00;102470.47;5003332;28;19976;-73
2024/01/30 03:13:07;;;;;;;;;;;;;;;6.52;100.00;102466.34;5008623;28;19968;-73
2024/01/30 03:15:32;;;;;;;;;;;;;;;6.48;100.00;102469.69;5023834;28;20320;-73
2024/01/30 03:17:58;;;;;;;;;;;;;;;6.47;100.00;102462.72;5010246;28;19931;-73
2024/01/30 03:20:24;;;;;;;;;;;;;;;6.53;100.00;102462.88;5006823;28;19913;-73
2024/01/30 03:22:49;;;;;;;;;;;;;;;6.53;100.00;102459.41;5011701;28;19921;-73
2024/01/30 03:25:14;;;;;;;;;;;;;;;6.67;100.00;102450.28;5019836;28;20335;-73
2024/01/30 03:27:40;;;;;;;;;;;;;;;6.56;100.00;102449.97;5008270;28;20308;-73
2024/01/30 03:30:05;;;;;;;;;;;;;;;6.57;100.00;102443.91;5023757;28;20000;-73
2024/01/30 03:32:32;;;;;;;;;;;;;;;6.51;100.00;102438.53;5009640;28;19929;-74
2024/01/30 03:34:58;;;;;;;;;;;;;;;6.46;100.00;102437.50;4994238;28;20292;-68
2024/01/30 03:37:23;;;;;;;;;;;;;;;6.52;100.00;102439.41;5047692;28;20187;-66
2024/01/30 03:39:51;;;;;;;;;;;;;;;6.46;100.00;102439.22;5019236;28;19925;-67
2024/01/30 03:42:16;;;;;;;;;;;;;;;6.53;100.00;102431.63;5025162;28;20023;-67
2024/01/30 03:44:42;;;;;;;;;;;;;;;6.70;100.00;102433.88;5024380;28;20016;-67
2024/01/30 03:47:08;;;;;;;;;;;;;;;6.53;100.00;102434.25;5022358;28;20012;-67
2024/01/30 03:49:33;;;;;;;;;;;;;;;6.48;100.00;102430.63;5003029;28;21089;-67
2024/01/30 03:51:58;;;;;;;;;;;;;;;6.51;100.00;102433.31;5022608;28;20079;-66
2024/01/30 03:54:24;;;;;;;;;;;;;;;6.42;100.00;102440.84;5020672;28;20281;-74
2024/01/30 03:56:49;;;;;;;;;;;;;;;6.49;100.00;102440.19;5020895;28;19917;-73
2024/01/30 03:59:14;;;;;;;;;;;;;;;6.53;100.00;102447.25;5026952;28;19921;-74
2024/01/30 04:01:40;;;;;;;;;;;;;;;6.43;100.00;102439.13;5004604;28;19921;-73
2024/01/30 04:04:05;;;;;;;;;;;;;;;6.55;100.00;102443.00;5012741;28;19924;-73
2024/01/30 04:06:30;;;;;;;;;;;;;;;6.48;100.00;102441.06;4993078;28;19936;-74
2024/01/30 04:08:55;;;;;;;;;;;;;;;6.57;100.00;102443.03;5008235;28;20229;-67
2024/01/30 04:11:21;;;;;;;;;;;;;;;6.65;100.00;102449.38;5019509;28;19917;-67
2024/01/30 04:13:48;;;;;;;;;;;;;;;6.68;100.00;102449.47;5005212;28;19921;-67
2024/01/30 04:16:23;;;;;;;;;;;;;;;6.69;100.00;102450.34;5013374;28;19928;-67
2024/01/30 04:18:48;;;;;;;;;;;;;;;6.68;100.00;102448.56;5001154;28;19925;-67
2024/01/30 04:21:13;;;;;;;;;;;;;;;6.77;100.00;102446.25;5013057;28;20004;-67
2024/01/30 04:23:39;;;;;;;;;;;;;;;6.72;100.00;102448.72;5086856;22;19925;-75
2024/01/30 04:26:05;;;;;;;;;;;;;;;6.71;100.00;102446.03;4998904;28;19933;-74
2024/01/30 04:28:30;;;;;;;;;;;;;;;6.74;100.00;102436.63;4992722;28;19926;-75
2024/01/30 04:30:55;;;;;;;;;;;;;;;6.71;100.00;102440.84;5008878;28;19925;-74
2024/01/30 05:39:07;;;;;;;;;;;;;;;7.02;100.00;102410.47;1311087;26;20385;-74
2024/01/30 05:41:51;;;;;;;;;;;;;;;7.09;100.00;102412.41;5055916;28;20003;-67
2024/01/30 05:44:16;;;;;;;;;;;;;;;7.05;100.00;102411.47;5066984;28;19948;-67
2024/01/30 05:46:42;;;;;;;;;;;;;;;7.10;100.00;102416.78;5061997;28;19964;-67
2024/01/30 05:49:07;;;;;;;;;;;;;;;7.08;100.00;102421.97;5039392;28;19971;-67
2024/01/30 05:51:33;;;;;;;;;;;;;;;7.11;100.00;102415.94;5053654;28;19935;-67
2024/01/30 05:53:58;;;;;;;;;;;;;;;7.16;100.00;102418.69;5062007;28;19974;-67
2024/01/30 05:56:23;;;;;;;;;;;;;;;7.21;100.00;102423.19;5042418;28;19931;-67
2024/01/30 05:58:50;;;;;;;;;;;;;;;7.26;100.00;102416.34;5045753;28;19925;-67
2024/01/30 06:01:16;;;;;;;;;;;;;;;7.32;100.00;102420.84;5047866;28;19956;-67
2024/01/30 06:03:43;;;;;;;;;;;;;;;7.35;100.00;102422.66;5060368;28;20437;-67
2024/01/30 06:06:08;;;;;;;;;;;;;;;7.46;100.00;102418.63;5050464;28;19943;-67
2024/01/30 06:08:34;;;;;;;;;;;;;;;7.41;100.00;102404.56;5065032;28;20371;-67
2024/01/30 06:10:59;;;;;;;;;;;;;;;7.45;100.00;102411.63;5055375;28;19920;-67
2024/01/30 06:13:24;;;;;;;;;;;;;;;7.44;100.00;102409.88;5056707;28;19972;-67
2024/01/30 06:15:50;;;;;;;;;;;;;;;7.54;100.00;102408.38;5052914;28;19928;-67
2024/01/30 06:18:15;;;;;;;;;;;;;;;7.56;100.00;102425.84;5039556;28;20415;-67
2024/01/30 06:20:41;;;;;;;;;;;;;;;7.55;100.00;102411.03;5085919;28;19928;-67
2024/01/30 06:23:06;;;;;;;;;;;;;;;7.66;100.00;102415.63;5046541;28;20300;-67
2024/01/30 06:25:31;;;;;;;;;;;;;;;7.66;100.00;102419.16;5046065;28;19916;-67
2024/01/30 06:27:57;;;;;;;;;;;;;;;7.74;100.00;102416.72;5042102;28;19920;-67
2024/01/30 06:30:22;;;;;;;;;;;;;;;7.77;100.00;102424.63;5052959;28;19929;-67
2024/01/30 06:32:48;;;;;;;;;;;;;;;7.72;100.00;102421.91;5066365;28;19921;-67
2024/01/30 06:35:14;;;;;;;;;;;;;;;7.74;100.00;102424.56;5039562;28;19920;-67
2024/01/30 06:37:39;;;;;;;;;;;;;;;7.71;100.00;102424.47;5046475;28;19943;-67
2024/01/30 06:40:05;;;;;;;;;;;;;;;7.74;100.00;102428.06;5051123;28;19929;-67
2024/01/30 06:42:30;;;;;;;;;;;;;;;7.76;100.00;102439.41;5054674;28;19970;-74
2024/01/30 06:44:56;;;;;;;;;;;;;;;7.75;100.00;102439.38;5066424;28;19927;-74
2024/01/30 06:47:21;;;;;;;;;;;;;;;7.76;100.00;102441.16;5045259;28;19966;-75
2024/01/30 06:49:46;;;;;;;;;;;;;;;7.75;100.00;102441.97;5062687;28;19985;-67
2024/01/30 06:52:12;;;;;;;;;;;;;;;7.69;100.00;102447.06;5039708;28;19924;-67
2024/01/30 06:54:37;;;;;;;;;;;;;;;7.68;100.00;102442.66;5078996;28;19928;-67
2024/01/30 06:57:03;;;;;;;;;;;;;;;7.61;100.00;102439.91;5057007;28;19916;-67
2024/01/30 06:59:28;;;;;;;;;;;;;;;7.65;100.00;102439.97;5046493;28;19968;-67
2024/01/30 07:01:53;;;;;;;;;;;;;;;7.59;100.00;102441.56;5062276;28;20581;-67
2024/01/30 07:04:19;;;;;;;;;;;;;;;7.61;100.00;102445.13;5055509;28;20023;-67
2024/01/30 07:06:44;;;;;;;;;;;;;;;7.58;100.00;102444.16;5062115;28;19928;-66
2024/01/30 07:09:09;;;;;;;;;;;;;;;7.58;100.00;102462.41;5040288;28;20576;-67
2024/01/30 07:11:36;;;;;;;;;;;;;;;7.56;100.00;102459.75;5043397;28;19926;-67
2024/01/30 07:14:04;;;;;;;;;;;;;;;7.58;100.00;102471.09;5044931;28;19928;-67
2024/01/30 07:16:29;;;;;;;;;;;;;;;7.61;100.00;102481.66;5062696;28;19927;-67
2024/01/30 07:18:56;;;;;;;;;;;;;;;7.62;100.00;102472.97;5061315;28;19920;-67
2024/01/30 07:21:27;;;;;;;;;;;;;;;7.71;100.00;102463.63;5057616;28;19925;-66
2024/01/30 07:23:55;;;;;;;;;;;;;;;7.71;100.00;102471.44;5050486;28;19927;-67
2024/01/30 07:26:20;;;;;;;;;;;;;;;7.74;100.00;102472.44;5062911;28;19928;-74
2024/01/30 07:28:45;;;;;;;;;;;;;;;7.79;100.00;102481.25;5049747;28;20315;-67
2024/01/30 07:31:13;;;;;;;;;;;;;;;7.87;100.00;102478.81;5046115;28;19924;-67
2024/01/30 07:33:38;;;;;;;;;;;;;;;7.90;100.00;102485.84;5060637;28;20406;-74
2024/01/30 07:36:03;;;;;;;;;;;;;;;8.02;100.00;102487.91;5042972;28;19966;-74
2024/01/30 07:38:31;;;;;;;;;;;;;;;8.04;100.00;102486.22;5082730;28;19920;-75
2024/01/30 07:40:56;;;;;;;;;;;;;;;8.09;100.00;102480.25;5053718;28;19932;-75
2024/01/30 07:43:22;;;;;;;;;;;;;;;8.15;100.00;102479.53;5027065;28;19921;-74
2024/01/30 07:45:47;;;;;;;;;;;;;;;8.14;100.00;102478.63;5042024;28;20268;-75
2024/01/30 07:48:13;;;;;;;;;;;;;;;8.23;100.00;102488.44;5025850;28;19920;-73
2024/01/30 07:50:39;;;;;;;;;;;;;;;8.31;100.00;102491.22;5043624;28;19958;-74
2024/01/30 07:53:04;;;;;;;;;;;;;;;8.25;100.00;102497.19;5042589;28;19990;-67
2024/01/30 07:55:31;;;;;;;;;;;;;;;8.25;100.00;102491.97;5040672;28;19928;-67
2024/01/30 07:57:57;;;;;;;;;;;;;;;8.26;100.00;102496.34;5029032;28;19921;-74
2024/01/30 08:00:22;;;;;;;;;;;;;;;8.30;100.00;102503.41;5035345;28;19917;-74
2024/01/30 08:02:47;;;;;;;;;;;;;;;8.35;100.00;102508.75;5030058;28;20276;-73
2024/01/30 08:05:15;;;;;;;;;;;;;;;8.38;100.00;102510.56;5021020;28;19935;-67
2024/01/30 08:07:40;;;;;;;;;;;;;;;8.43;100.00;102511.53;5017879;28;19921;-67
2024/01/30 08:10:06;;;;;;;;;;;;;;;8.48;100.00;102505.59;5044865;28;20410;-74
2024/01/30 08:12:31;;;;;;;;;;;;;;;8.56;100.00;102512.75;5029566;28;19932;-73
2024/01/30 08:14:56;;;;;;;;;;;;;;;8.54;100.00;102510.09;5032629;28;20351;-73
2024/01/30 08:17:22;;;;;;;;;;;;;;;8.57;100.00;102510.16;5025378;28;20031;-74
2024/01/30 08:19:47;;;;;;;;;;;;;;;8.60;100.00;102515.44;5032376;28;19920;-67
2024/01/30 08:22:13;;;;;;;;;;;;;;;8.61;100.00;102512.00;5037336;28;20007;-67
2024/01/30 08:24:40;;;;;;;;;;;;;;;8.60;100.00;102509.34;5024489;28;19921;-67
2024/01/30 08:27:05;;;;;;;;;;;;;;;8.59;100.00;102511.09;5029265;28;19921;-67
2024/01/30 08:29:30;;;;;;;;;;;;;;;8.62;100.00;102513.78;5018529;28;19994;-67
2024/01/30 08:31:56;;;;;;;;;;;;;;;8.64;100.00;102506.84;5018749;28;19921;-67
2024/01/30 08:34:21;;;;;;;;;;;;;;;8.65;100.00;102513.84;5033341;28;19933;-67
2024/01/30 08:36:46;;;;;;;;;;;;;;;8.67;100.00;102516.47;5033573;28;19951;-67
2024/01/30 08:39:12;;;;;;;;;;;;;;;8.73;100.00;102507.91;5029592;28;20331;-67
2024/01/30 08:41:37;;;;;;;;;;;;;;;8.77;100.00;102512.34;4987771;28;1847985;-67
2024/01/30 08:44:04;;;;;;;;;;;;;;;8.81;100.00;102519.44;5044689;28;19921;-67
2024/01/30 08:46:30;;;;;;;;;;;;;;;8.87;100.00;102527.41;5031203;28;19924;-66
2024/01/30 08:48:55;;;;;;;;;;;;;;;8.91;100.00;102526.63;5043173;28;20367;-67
2024/01/30 08:51:21;;;;;;;;;;;;;;;8.96;100.00;102514.50;5039270;28;19925;-67
2024/01/30 08:53:46;;;;;;;;;;;;;;;9.02;100.00;102517.28;5038580;28;19924;-66
2024/01/30 08:56:11;;;;;;;;;;;;;;;9.07;100.00;102519.97;5049823;28;19921;-67
2024/01/30 08:58:37;;;;;;;;;;;;;;;9.12;100.00;102515.75;5037550;28;19927;-66
2024/01/30 09:01:05;;;;;;;;;;;;;;;9.17;100.00;102519.31;5039926;28;19932;-67
2024/01/30 09:03:30;;;;;;;;;;;;;;;9.22;100.00;102519.41;5043652;28;19966;-73
2024/01/30 09:05:57;;;;;;;;;;;;;;;9.26;100.00;102520.38;5061452;28;19920;-75
2024/01/30 09:08:23;;;;;;;;;;;;;;;9.27;100.00;102523.03;5035779;28;19965;-75
2024/01/30 09:10:49;;;;;;;;;;;;;;;9.29;100.00;102526.53;5045331;28;19916;-75
2024/01/30 09:13:15;;;;;;;;;;;;;;;9.33;100.00;102535.34;5036574;28;19979;-73
2024/01/30 09:15:41;;;;;;;;;;;;;;;9.34;100.00;102527.53;5046993;28;20392;-74
2024/01/30 09:18:07;;;;;;;;;;;;;;;9.39;100.00;102526.75;5037913;28;19927;-67
2024/01/30 09:20:32;;;;;;;;;;;;;;;9.41;100.00;102527.63;5038031;28;20377;-75
2024/01/30 09:22:57;;;;;;;;;;;;;;;9.45;100.00;102534.72;5051834;28;19959;-67
2024/01/30 09:25:23;;;;;;;;;;;;;;;9.48;100.00;102540.00;5060972;28;20028;-67
2024/01/30 09:27:48;;;;;;;;;;;;;;;9.51;100.00;102542.66;5051164;28;20940;-67
2024/01/30 09:30:15;;;;;;;;;;;;;;;9.54;100.00;102541.00;5053150;28;20269;-74
2024/01/30 09:32:40;;;;;;;;;;;;;;;9.59;100.00;102541.09;5047227;28;19924;-74
2024/01/30 09:35:06;;;;;;;;;;;;;;;9.66;100.00;102544.72;5051975;28;20324;-74
2024/01/30 09:37:31;;;;;;;;;;;;;;;9.73;100.00;102545.75;5050226;28;20288;-74
2024/01/30 09:39:57;;;;;;;;;;;;;;;9.77;100.00;102555.38;5050583;28;20071;-74
2024/01/30 09:42:31;;;;;;;;;;;;;;;9.80;100.00;102547.63;5050192;28;20384;-67
2024/01/30 09:44:59;;;;;;;;;;;;;;;9.85;100.00;102541.59;5046460;28;19932;-66
2024/01/30 09:47:25;;;;;;;;;;;;;;;9.89;100.00;102558.25;5044071;28;19951;-67
2024/01/30 09:49:51;;;;;;;;;;;;;;;9.93;100.00;102559.16;5051158;28;19936;-74
2024/01/30 09:52:18;;;;;;;;;;;;;;;9.97;100.00;102554.03;5021786;28;19928;-67
2024/01/30 09:54:44;;;;;;;;;;;;;;;10.03;100.00;102559.38;5051510;28;20282;-74
2024/01/30 09:57:14;;;;;;;;;;;;;;;10.10;100.00;102556.84;5049909;28;20376;-74
2024/01/30 09:59:39;;;;;;;;;;;;;;;10.23;100.00;102564.09;5065554;28;19921;-74
2024/01/30 10:02:04;;;;;;;;;;;;;;;10.39;100.00;102563.53;5051079;28;19944;-67
2024/01/30 10:04:30;;;;;;;;;;;;;;;10.53;100.00;102557.63;5043925;28;19952;-67
2024/01/30 10:06:56;;;;;;;;;;;;;;;10.60;99.90;102564.72;5040063;28;20040;-67
2024/01/30 10:09:21;;;;;;;;;;;;;;;10.62;99.86;102560.41;5048648;28;19924;-66
2024/01/30 10:11:47;;;;;;;;;;;;;;;10.63;99.55;102554.31;5054552;28;19916;-67
2024/01/30 10:14:12;;;;;;;;;;;;;;;10.66;99.63;102559.59;5032226;28;19924;-67
2024/01/30 10:16:37;;;;;;;;;;;;;;;10.70;99.83;102560.50;5044871;28;19928;-67
2024/01/30 10:19:02;;;;;;;;;;;;;;;10.73;99.85;102553.59;5048810;28;20364;-66
2024/01/30 10:21:29;;;;;;;;;;;;;;;10.74;99.62;102559.69;5025287;28;19928;-67
2024/01/30 10:23:55;;;;;;;;;;;;;;;10.75;99.79;102572.81;5041224;28;20364;-67
2024/01/30 10:26:20;;;;;;;;;;;;;;;10.73;99.54;102573.66;5049620;28;20031;-66
2024/01/30 10:28:46;;;;;;;;;;;;;;;10.70;99.67;102571.00;5043261;28;19975;-67
2024/01/30 10:31:15;;;;;;;;;;;;;;;10.67;99.75;102571.81;5043842;28;19920;-67
2024/01/30 10:33:41;;;;;;;;;;;;;;;10.66;100.00;102577.94;5056243;28;19924;-74
2024/01/30 10:36:07;;;;;;;;;;;;;;;10.68;99.92;102578.84;5037515;28;19928;-66
2024/01/30 10:38:32;;;;;;;;;;;;;;;10.70;100.00;102571.91;5057686;28;20016;-67
2024/01/30 10:40:59;;;;;;;;;;;;;;;10.75;100.00;102580.69;5062553;28;19920;-66
2024/01/30 10:43:30;;;;;;;;;;;;;;;10.83;99.19;102572.06;5044271;28;19927;-66
2024/01/30 10:45:57;;;;;;;;;;;;;;;10.94;99.33;102567.84;5042683;28;19925;-66
2024/01/30 10:48:26;;;;;;;;;;;;;;;11.02;98.87;102578.44;5045605;28;20015;-67
2024/01/30 10:50:55;;;;;;;;;;;;;;;11.07;98.89;102577.66;5039543;28;19971;-67
2024/01/30 10:53:22;;;;;;;;;;;;;;;11.07;98.39;102569.78;5037421;28;20019;-67
2024/01/30 10:55:48;;;;;;;;;;;;;;;11.06;98.66;102560.19;5040240;28;19917;-66
2024/01/30 10:58:14;;;;;;;;;;;;;;;11.08;98.11;102562.81;5061304;28;19916;-67
2024/01/30 11:00:40;;;;;;;;;;;;;;;11.06;98.55;102570.66;5046253;28;19917;-69
2024/01/30 11:03:06;;;;;;;;;;;;;;;11.07;98.72;102577.66;5034009;28;20346;-66
2024/01/30 11:05:33;;;;;;;;;;;;;;;11.14;98.81;102576.00;5028524;28;19921;-67
2024/01/30 11:07:58;;;;;;;;;;;;;;;11.21;98.36;102571.75;5035040;28;19996;-67
2024/01/30 11:10:24;;;;;;;;;;;;;;;11.35;97.81;102578.03;5038839;28;20378;-67
2024/01/30 11:12:51;;;;;;;;;;;;;;;11.46;97.11;102574.66;5056353;28;20253;-74
2024/01/30 11:15:17;;;;;;;;;;;;;;;11.53;97.16;102582.63;5025407;28;20266;-74
2024/01/30 11:17:48;;;;;;;;;;;;;;;11.52;95.77;102580.88;5020657;28;19928;-74
2024/01/30 11:20:19;;;;;;;;;;;;;;;11.47;97.19;102584.31;5061744;28;19917;-67
2024/01/30 11:22:45;;;;;;;;;;;;;;;11.35;96.95;102580.66;5045959;28;20283;-67
2024/01/30 11:25:11;;;;;;;;;;;;;;;11.29;97.91;102582.31;5043572;28;19924;-67
2024/01/30 11:27:37;;;;;;;;;;;;;;;11.17;97.73;102577.81;5045442;28;19921;-67
2024/01/30 11:30:04;;;;;;;;;;;;;;;11.08;97.29;102579.44;5044078;28;19947;-66
2024/01/30 11:32:29;;;;;;;;;;;;;;;11.03;97.96;102570.63;5047195;28;19928;-67
2024/01/30 11:34:56;;;;;;;;;;;;;;;11.01;97.79;102569.72;5043131;28;19920;-67
2024/01/30 11:37:24;;;;;;;;;;;;;;;11.06;97.72;102572.38;5043252;28;19991;-67
2024/01/30 11:39:50;;;;;;;;;;;;;;;11.07;97.50;102566.28;5052730;28;20003;-67
2024/01/30 11:42:16;;;;;;;;;;;;;;;11.24;97.28;102585.75;5052896;28;19928;-66
2024/01/30 11:44:46;;;;;;;;;;;;;;;11.43;96.22;102576.41;5053841;28;19965;-66
2024/01/30 11:47:14;;;;;;;;;;;;;;;11.55;96.10;102574.78;5061517;28;20303;-66
2024/01/30 11:49:39;;;;;;;;;;;;;;;11.69;95.46;102574.94;5051326;28;19916;-73
2024/01/30 11:52:05;;;;;;;;;;;;;;;11.87;94.17;102576.91;5049572;28;19927;-73
2024/01/30 11:54:30;;;;;;;;;;;;;;;11.96;91.58;102583.13;5056102;28;20303;-72
2024/01/30 11:56:55;;;;;;;;;;;;;;;11.98;91.81;102583.16;5060895;28;20380;-74
2024/01/30 11:59:21;;;;;;;;;;;;;;;12.00;91.01;102584.06;5040804;28;19920;-74
2024/01/30 12:01:47;;;;;;;;;;;;;;;11.87;89.57;102584.78;5053227;28;19920;-72
2024/01/30 12:04:12;;;;;;;;;;;;;;;11.69;89.82;102578.44;5051941;28;19928;-74
2024/01/30 12:06:38;;;;;;;;;;;;;;;11.65;88.79;102591.53;5088979;28;20402;-72
2024/01/30 12:09:11;;;;;;;;;;;;;;;11.64;90.18;102576.63;5054703;28;20018;-73
2024/01/30 12:11:46;;;;;;;;;;;;;;;11.62;88.00;102581.84;5054072;28;20395;-71
2024/01/30 12:14:13;;;;;;;;;;;;;;;11.61;88.04;102585.38;5071747;28;20053;-74
2024/01/30 12:16:38;;;;;;;;;;;;;;;11.63;89.23;102588.00;5050919;28;20390;-74
2024/01/30 12:19:04;;;;;;;;;;;;;;;11.60;89.64;102588.84;5048143;28;19971;-74
2024/01/30 12:21:29;;;;;;;;;;;;;;;11.53;88.32;102587.88;5052186;28;19928;-66
2024/01/30 12:23:56;;;;;;;;;;;;;;;11.40;87.13;102593.84;5050139;28;19928;-66
2024/01/30 12:26:21;;;;;;;;;;;;;;;11.39;87.60;102599.94;5049112;28;19920;-73
2024/01/30 12:28:47;;;;;;;;;;;;;;;11.44;87.71;102601.78;5051814;28;19954;-71
2024/01/30 12:31:14;;;;;;;;;;;;;;;11.50;87.57;102592.22;5061522;28;19918;-74
2024/01/30 12:33:39;;;;;;;;;;;;;;;11.46;83.27;102606.16;5051770;28;19928;-72
2024/01/30 12:36:05;;;;;;;;;;;;;;;11.25;84.29;102612.91;5048037;28;19935;-74
2024/01/30 12:38:30;;;;;;;;;;;;;;;11.17;84.76;102614.53;5064571;28;19999;-66
2024/01/30 12:40:56;;;;;;;;;;;;;;;11.08;84.19;102604.78;5051940;28;19936;-74
2024/01/30 12:43:21;;;;;;;;;;;;;;;11.14;83.88;102609.25;5051666;28;19931;-75
2024/01/30 12:45:47;;;;;;;;;;;;;;;11.21;84.43;102622.47;5041218;28;20291;-75
2024/01/30 12:48:12;;;;;;;;;;;;;;;11.62;83.29;102623.88;5051652;28;19951;-74
2024/01/30 12:50:38;;;;;;;;;;;;;;;12.34;80.38;102634.34;5045329;28;19925;-67
2024/01/30 12:53:04;;;;;;;;;;;;;;;13.54;77.29;102622.94;5052669;28;19986;-66
2024/01/30 12:55:30;;;;;;;;;;;;;;;15.12;69.42;102624.00;5061550;28;19923;-66
2024/01/30 12:57:55;;;;;;;;;;;;;;;15.54;64.56;102622.09;5042462;28;19971;-67
2024/01/30 13:00:22;;;;;;;;;;;;;;;15.58;69.09;102632.63;5024812;28;19950;-66
2024/01/30 13:02:50;;;;;;;;;;;;;;;15.27;67.45;102621.34;5059973;28;19975;-69
2024/01/30 13:05:15;;;;;;;;;;;;;;;15.33;66.33;102620.41;5038734;28;19924;-75
2024/01/30 13:07:41;;;;;;;;;;;;;;;14.82;68.61;102636.38;5052264;28;19921;-67
2024/01/30 13:10:06;;;;;;;;;;;;;;;14.05;70.13;102634.53;5053762;28;19973;-66
2024/01/30 13:12:33;;;;;;;;;;;;;;;13.49;73.04;102644.84;5052241;28;19939;-66
2024/01/30 13:15:00;;;;;;;;;;;;;;;13.08;73.80;102641.94;5065424;28;19927;-73
2024/01/30 13:17:26;;;;;;;;;;;;;;;12.59;72.46;102650.34;5048082;28;20030;-73
2024/01/30 13:19:51;;;;;;;;;;;;;;;12.18;72.37;102648.19;5052240;28;19920;-67
2024/01/30 13:22:16;;;;;;;;;;;;;;;11.86;73.70;102659.19;5040392;28;19920;-72
2024/01/30 13:24:42;;;;;;;;;;;;;;;11.64;71.60;102658.91;5041445;28;19920;-68
2024/01/30 13:27:08;;;;;;;;;;;;;;;11.66;74.67;102656.31;5041168;28;19924;-67
2024/01/30 13:29:36;;;;;;;;;;;;;;;11.40;72.01;102668.22;5035939;28;19925;-67
2024/01/30 13:32:02;;;;;;;;;;;;;;;11.51;73.89;102660.50;5046730;28;20369;-71
2024/01/30 13:34:27;;;;;;;;;;;;;;;11.43;72.79;102665.66;5056221;28;19925;-73